createdAt,value
2023-02-09T00:00:16.454Z,33.18
2023-02-09T00:01:16.471Z,34.57
2023-02-09T00:03:16.487Z,35.66
2023-02-09T00:04:16.426Z,34.38
2023-02-09T00:05:16.471Z,33.43
2023-02-09T00:06:16.470Z,35.38
2023-02-09T00:07:16.465Z,34.94
2023-02-09T00:09:16.471Z,35.69
2023-02-09T00:10:16.488Z,36.99
2023-02-09T00:13:16.480Z,35.78
2023-02-09T00:14:16.449Z,34.99
2023-02-09T00:15:16.491Z,33.49
2023-02-09T00:16:16.585Z,34.50
2023-02-09T00:19:16.465Z,37.88
2023-02-09T00:20:16.490Z,35.70
2023-02-09T00:21:16.497Z,34.87
2023-02-09T00:22:16.486Z,35.95
2023-02-09T00:24:16.521Z,34.41
2023-02-09T00:25:16.544Z,35.61
2023-02-09T00:26:16.513Z,34.64
2023-02-09T00:27:16.481Z,34.36
2023-02-09T00:28:16.573Z,36.31
2023-02-09T00:29:16.520Z,35.66
2023-02-09T00:30:16.522Z,36.16
2023-02-09T00:31:16.600Z,35.86
2023-02-09T00:33:16.523Z,35.95
2023-02-09T00:34:16.530Z,34.72
2023-02-09T00:35:16.495Z,33.64
2023-02-09T00:36:16.551Z,34.63
2023-02-09T00:37:16.528Z,36.31
2023-02-09T00:38:19.106Z,34.28
2023-02-09T00:39:16.559Z,35.11
2023-02-09T00:40:16.558Z,34.90
2023-02-09T00:41:16.556Z,33.12
2023-02-09T00:43:18.008Z,35.98
2023-02-09T00:44:16.558Z,36.20
2023-02-09T00:46:16.737Z,35.55
2023-02-09T00:47:16.565Z,35.07
2023-02-09T00:48:16.522Z,35.65
2023-02-09T00:49:16.540Z,35.26
2023-02-09T00:50:16.535Z,34.58
2023-02-09T00:51:16.569Z,34.49
2023-02-09T00:52:16.574Z,36.09
2023-02-09T00:53:16.572Z,36.03
2023-02-09T00:54:16.576Z,34.83
2023-02-09T00:55:16.543Z,35.63
2023-02-09T00:56:16.537Z,33.54
2023-02-09T00:57:16.565Z,35.25
2023-02-09T00:58:16.596Z,35.42
2023-02-09T00:59:16.641Z,33.96
2023-02-09T01:01:16.622Z,34.11
2023-02-09T01:03:16.628Z,33.91
2023-02-09T01:04:16.682Z,35.86
2023-02-09T01:06:16.578Z,34.25
2023-02-09T01:07:16.630Z,35.09
2023-02-09T01:09:16.595Z,34.48
2023-02-09T01:11:16.615Z,34.95
2023-02-09T01:15:16.625Z,35.76
2023-02-09T01:16:16.629Z,35.52
2023-02-09T01:17:16.643Z,36.18
2023-02-09T01:18:16.619Z,36.00
2023-02-09T01:19:16.634Z,36.38
2023-02-09T01:20:16.594Z,35.89
2023-02-09T01:22:16.673Z,36.24
2023-02-09T01:23:16.672Z,35.04
2023-02-09T01:24:16.637Z,36.08
2023-02-09T01:25:16.655Z,36.99
2023-02-09T01:26:16.602Z,34.31
2023-02-09T01:27:16.675Z,34.48
2023-02-09T01:31:16.717Z,36.18
2023-02-09T01:32:16.716Z,36.11
2023-02-09T01:33:16.623Z,35.99
2023-02-09T01:34:16.654Z,36.27
2023-02-09T01:35:16.668Z,35.07
2023-02-09T01:37:16.683Z,37.22
2023-02-09T01:38:16.700Z,34.91
2023-02-09T01:39:16.702Z,36.25
2023-02-09T01:40:16.663Z,35.69
2023-02-09T01:41:16.655Z,37.15
2023-02-09T01:43:16.693Z,35.09
2023-02-09T01:44:16.655Z,35.26
2023-02-09T01:45:16.708Z,36.86
2023-02-09T01:46:16.723Z,36.51
2023-02-09T01:47:16.691Z,36.37
2023-02-09T01:48:16.704Z,35.70
2023-02-09T01:49:16.717Z,35.93
2023-02-09T01:50:16.795Z,33.71
2023-02-09T01:51:16.720Z,37.08
2023-02-09T01:52:16.756Z,35.83
2023-02-09T01:53:16.714Z,35.16
2023-02-09T01:54:16.716Z,35.49
2023-02-09T01:55:16.728Z,35.32
2023-02-09T01:56:16.708Z,35.61
2023-02-09T01:58:16.726Z,35.65
2023-02-09T01:59:16.694Z,37.04
2023-02-09T02:01:16.734Z,36.14
2023-02-09T02:03:16.749Z,36.59
2023-02-09T02:04:16.705Z,37.31
2023-02-09T02:05:16.699Z,36.41
2023-02-09T02:07:16.787Z,37.01
2023-02-09T02:08:16.717Z,35.95
2023-02-09T02:09:16.746Z,37.89
2023-02-09T02:10:16.721Z,35.61
2023-02-09T02:11:16.722Z,35.40
2023-02-09T02:12:16.777Z,37.01
2023-02-09T02:13:16.751Z,37.76
2023-02-09T02:14:16.721Z,34.98
2023-02-09T02:15:16.726Z,34.37
2023-02-09T02:16:16.819Z,37.71
2023-02-09T02:17:16.802Z,35.05
2023-02-09T02:18:16.761Z,33.99
2023-02-09T02:19:16.772Z,35.51
2023-02-09T02:20:16.786Z,36.07
2023-02-09T02:21:16.773Z,34.56
2023-02-09T02:22:16.774Z,34.79
2023-02-09T02:23:16.725Z,35.03
2023-02-09T02:25:16.752Z,36.52
2023-02-09T02:26:16.750Z,35.73
2023-02-09T02:27:16.825Z,33.36
2023-02-09T02:29:16.744Z,37.31
2023-02-09T02:30:16.774Z,37.54
2023-02-09T02:31:16.948Z,38.13
2023-02-09T02:32:16.799Z,38.04
2023-02-09T02:33:16.762Z,37.89
2023-02-09T02:34:16.769Z,36.42
2023-02-09T02:35:16.779Z,36.86
2023-02-09T02:36:16.802Z,37.10
2023-02-09T02:37:16.856Z,36.66
2023-02-09T02:39:16.776Z,36.04
2023-02-09T02:40:16.786Z,37.65
2023-02-09T02:41:16.795Z,37.50
2023-02-09T02:43:16.811Z,37.30
2023-02-09T02:44:16.825Z,36.61
2023-02-09T02:45:16.837Z,38.71
2023-02-09T02:46:16.861Z,36.75
2023-02-09T02:47:16.820Z,37.67
2023-02-09T02:48:16.850Z,37.38
2023-02-09T02:50:16.872Z,36.47
2023-02-09T02:53:16.857Z,39.21
2023-02-09T02:54:16.866Z,36.86
2023-02-09T02:55:16.863Z,37.26
2023-02-09T02:57:16.881Z,37.25
2023-02-09T02:59:16.885Z,36.60
2023-02-09T03:00:16.906Z,37.46
2023-02-09T03:03:16.905Z,37.07
2023-02-09T03:04:16.878Z,36.58
2023-02-09T03:05:16.962Z,37.46
2023-02-09T03:06:16.864Z,37.02
2023-02-09T03:07:16.849Z,39.21
2023-02-09T03:09:16.893Z,37.50
2023-02-09T03:10:16.852Z,36.88
2023-02-09T03:11:16.885Z,38.43
2023-02-09T03:12:16.854Z,37.33
2023-02-09T03:13:16.947Z,38.62
2023-02-09T03:14:16.897Z,36.40
2023-02-09T03:15:16.885Z,39.82
2023-02-09T03:16:16.941Z,38.16
2023-02-09T03:17:16.914Z,37.77
2023-02-09T03:18:16.916Z,38.75
2023-02-09T03:19:16.905Z,39.41
2023-02-09T03:21:16.917Z,35.96
2023-02-09T03:23:16.942Z,38.04
2023-02-09T03:24:16.899Z,37.56
2023-02-09T03:25:16.886Z,36.17
2023-02-09T03:26:16.997Z,37.21
2023-02-09T03:27:16.963Z,38.06
2023-02-09T03:29:16.982Z,39.16
2023-02-09T03:30:16.945Z,36.54
2023-02-09T03:31:17.106Z,38.61
2023-02-09T03:32:16.956Z,35.78
2023-02-09T03:35:16.958Z,37.16
2023-02-09T03:36:16.965Z,36.01
2023-02-09T03:37:16.967Z,36.61
2023-02-09T03:38:16.927Z,35.54
2023-02-09T03:39:16.996Z,35.19
2023-02-09T03:41:16.977Z,35.66
2023-02-09T03:42:16.924Z,36.17
2023-02-09T03:43:16.966Z,35.20
2023-02-09T03:44:17.003Z,37.85
2023-02-09T03:46:16.982Z,37.69
2023-02-09T03:47:16.947Z,36.99
2023-02-09T03:48:16.984Z,38.43
2023-02-09T03:49:17.018Z,36.16
2023-02-09T03:50:16.987Z,35.27
2023-02-09T03:51:16.975Z,35.57
2023-02-09T03:52:17.002Z,36.42
2023-02-09T03:54:17.070Z,35.61
2023-02-09T03:55:16.997Z,35.83
2023-02-09T03:56:16.981Z,36.04
2023-02-09T03:57:17.015Z,36.92
2023-02-09T03:58:16.966Z,37.10
2023-02-09T03:59:16.968Z,36.39
2023-02-09T04:00:16.984Z,37.18
2023-02-09T04:02:17.050Z,35.75
2023-02-09T04:03:17.020Z,34.67
2023-02-09T04:04:17.025Z,36.98
2023-02-09T04:05:17.002Z,37.00
2023-02-09T04:06:16.999Z,36.04
2023-02-09T04:07:17.095Z,34.05
2023-02-09T04:08:16.979Z,34.60
2023-02-09T04:09:16.995Z,34.07
2023-02-09T04:11:17.032Z,36.44
2023-02-09T04:12:17.074Z,36.32
2023-02-09T04:13:17.011Z,35.31
2023-02-09T04:14:17.065Z,34.89
2023-02-09T04:15:17.054Z,37.59
2023-02-09T04:16:17.012Z,35.10
2023-02-09T04:17:17.114Z,35.89
2023-02-09T04:18:17.061Z,34.47
2023-02-09T04:19:17.076Z,34.63
2023-02-09T04:20:17.006Z,36.68
2023-02-09T04:21:17.046Z,33.48
2023-02-09T04:22:17.094Z,34.54
2023-02-09T04:23:18.382Z,34.85
2023-02-09T04:24:17.057Z,34.82
2023-02-09T04:25:17.033Z,34.08
2023-02-09T04:26:17.076Z,34.64
2023-02-09T04:27:17.072Z,33.73
2023-02-09T04:28:17.150Z,35.45
2023-02-09T04:29:17.055Z,34.60
2023-02-09T04:30:17.114Z,33.55
2023-02-09T04:31:17.186Z,35.24
2023-02-09T04:32:17.121Z,33.64
2023-02-09T04:33:17.061Z,35.07
2023-02-09T04:36:17.077Z,34.76
2023-02-09T04:39:17.069Z,35.24
2023-02-09T04:40:17.141Z,34.06
2023-02-09T04:41:17.142Z,34.74
2023-02-09T04:43:17.067Z,33.79
2023-02-09T04:44:17.078Z,31.70
2023-02-09T04:45:17.150Z,34.90
2023-02-09T04:46:17.211Z,34.23
2023-02-09T04:48:17.154Z,33.99
2023-02-09T04:50:17.089Z,35.89
2023-02-09T04:51:17.127Z,36.28
2023-02-09T04:53:17.172Z,35.17
2023-02-09T04:54:17.106Z,35.02
2023-02-09T04:55:17.106Z,36.27
2023-02-09T04:56:17.148Z,32.80
2023-02-09T04:59:17.119Z,34.98
2023-02-09T05:00:17.104Z,32.99
2023-02-09T05:01:17.211Z,33.22
2023-02-09T05:04:17.188Z,32.85
2023-02-09T05:05:17.161Z,33.96
2023-02-09T05:06:17.155Z,32.17
2023-02-09T05:07:17.179Z,34.06
2023-02-09T05:08:17.138Z,32.71
2023-02-09T05:09:17.132Z,32.56
2023-02-09T05:11:17.143Z,33.28
2023-02-09T05:12:17.189Z,33.35
2023-02-09T05:13:17.184Z,34.48
2023-02-09T05:14:17.152Z,36.01
2023-02-09T05:15:17.152Z,34.13
2023-02-09T05:17:17.156Z,33.86
2023-02-09T05:18:17.168Z,32.61
2023-02-09T05:19:17.194Z,34.72
2023-02-09T05:20:17.159Z,35.52
2023-02-09T05:21:17.193Z,33.19
2023-02-09T05:23:17.208Z,33.32
2023-02-09T05:24:17.187Z,33.35
2023-02-09T05:25:17.228Z,32.88
2023-02-09T05:27:17.193Z,32.88
2023-02-09T05:28:17.256Z,33.98
2023-02-09T05:29:17.228Z,33.39
2023-02-09T05:30:17.242Z,34.92
2023-02-09T05:31:17.324Z,33.03
2023-02-09T05:32:17.358Z,34.59
2023-02-09T05:33:17.269Z,33.21
2023-02-09T05:34:17.234Z,33.43
2023-02-09T05:35:17.226Z,34.69
2023-02-09T05:36:17.250Z,35.10
2023-02-09T05:38:17.254Z,34.54
2023-02-09T05:41:17.235Z,35.53
2023-02-09T05:42:17.254Z,33.65
2023-02-09T05:43:17.201Z,35.21
2023-02-09T05:46:17.305Z,33.66
2023-02-09T05:47:17.252Z,34.94
2023-02-09T05:49:17.301Z,33.29
2023-02-09T05:50:17.272Z,33.58
2023-02-09T05:51:17.281Z,33.56
2023-02-09T05:52:17.274Z,35.17
2023-02-09T05:53:17.248Z,35.02
2023-02-09T05:54:17.281Z,34.16
2023-02-09T05:55:17.288Z,35.68
2023-02-09T05:56:17.241Z,34.28
2023-02-09T05:57:17.287Z,34.93
2023-02-09T05:58:17.287Z,34.53
2023-02-09T05:59:17.285Z,34.65
2023-02-09T06:00:17.290Z,32.88
2023-02-09T06:01:17.292Z,32.51
2023-02-09T06:02:17.393Z,35.11
2023-02-09T06:03:17.356Z,34.94
2023-02-09T06:04:17.261Z,31.79
2023-02-09T06:05:17.306Z,34.48
2023-02-09T06:06:17.300Z,34.72
2023-02-09T06:10:17.329Z,33.87
2023-02-09T06:11:17.326Z,35.14
2023-02-09T06:12:17.323Z,34.84
2023-02-09T06:14:17.346Z,34.66
2023-02-09T06:15:17.356Z,34.67
2023-02-09T06:17:17.328Z,34.95
2023-02-09T06:20:17.341Z,34.01
2023-02-09T06:21:17.305Z,37.17
2023-02-09T06:22:17.356Z,36.11
2023-02-09T06:23:17.344Z,35.61
2023-02-09T06:24:17.368Z,35.15
2023-02-09T06:25:17.421Z,36.93
2023-02-09T06:26:17.314Z,38.62
2023-02-09T06:27:17.340Z,36.00
2023-02-09T06:28:17.410Z,34.76
2023-02-09T06:29:17.381Z,35.55
2023-02-09T06:30:17.310Z,36.85
2023-02-09T06:31:17.541Z,33.71
2023-02-09T06:32:17.464Z,35.39
2023-02-09T06:33:17.401Z,36.16
2023-02-09T06:34:17.371Z,34.93
2023-02-09T06:36:17.363Z,36.00
2023-02-09T06:37:17.594Z,35.74
2023-02-09T06:40:17.424Z,36.59
2023-02-09T06:42:17.382Z,35.60
2023-02-09T06:43:17.398Z,35.12
2023-02-09T06:46:17.438Z,36.95
2023-02-09T06:47:17.364Z,35.31
2023-02-09T06:48:17.370Z,36.31
2023-02-09T06:49:17.409Z,34.52
2023-02-09T06:50:17.402Z,34.27
2023-02-09T06:51:17.380Z,36.65
2023-02-09T06:52:17.408Z,37.16
2023-02-09T06:54:17.382Z,36.80
2023-02-09T06:55:17.395Z,36.22
2023-02-09T06:56:17.381Z,36.07
2023-02-09T06:57:17.387Z,36.67
2023-02-09T06:58:17.452Z,36.27
2023-02-09T06:59:17.439Z,35.38
2023-02-09T07:00:17.452Z,35.40
2023-02-09T07:02:17.479Z,35.44
2023-02-09T07:03:17.480Z,36.04
2023-02-09T07:04:17.412Z,36.35
2023-02-09T07:07:17.419Z,35.09
2023-02-09T07:08:17.452Z,36.17
2023-02-09T07:10:17.457Z,34.91
2023-02-09T07:11:17.480Z,34.96
2023-02-09T07:12:17.473Z,36.25
2023-02-09T07:13:17.471Z,35.55
2023-02-09T07:14:17.475Z,35.28
2023-02-09T07:15:17.457Z,34.84
2023-02-09T07:16:17.621Z,35.63
2023-02-09T07:17:17.439Z,35.75
2023-02-09T07:19:17.440Z,34.11
2023-02-09T07:20:17.464Z,37.49
2023-02-09T07:22:17.506Z,33.72
2023-02-09T07:23:17.481Z,36.67
2023-02-09T07:24:17.515Z,36.46
2023-02-09T07:25:17.456Z,36.95
2023-02-09T07:26:17.506Z,35.63
2023-02-09T07:27:17.467Z,37.56
2023-02-09T07:28:17.645Z,36.34
2023-02-09T07:29:17.543Z,36.38
2023-02-09T07:30:17.489Z,35.17
2023-02-09T07:31:17.672Z,34.98
2023-02-09T07:32:17.518Z,36.19
2023-02-09T07:33:17.517Z,35.12
2023-02-09T07:34:17.504Z,35.01
2023-02-09T07:35:17.543Z,34.57
2023-02-09T07:36:17.578Z,37.03
2023-02-09T07:37:17.572Z,35.05
2023-02-09T07:38:17.489Z,33.84
2023-02-09T07:39:17.547Z,34.87
2023-02-09T07:40:17.543Z,36.35
2023-02-09T07:41:17.541Z,36.04
2023-02-09T07:42:17.526Z,37.22
2023-02-09T07:43:17.561Z,36.12
2023-02-09T07:44:17.537Z,34.55
2023-02-09T07:45:17.533Z,36.50
2023-02-09T07:46:17.561Z,34.46
2023-02-09T07:47:17.571Z,35.53
2023-02-09T07:48:17.554Z,36.35
2023-02-09T07:49:17.549Z,35.76
2023-02-09T07:50:19.270Z,34.75
2023-02-09T07:51:17.544Z,37.83
2023-02-09T07:52:17.584Z,34.53
2023-02-09T07:53:17.551Z,34.09
2023-02-09T07:54:17.556Z,35.55
2023-02-09T07:55:17.572Z,33.60
2023-02-09T07:56:17.571Z,35.95
2023-02-09T07:57:17.584Z,34.35
2023-02-09T07:58:17.570Z,33.20
2023-02-09T07:59:17.569Z,35.09
2023-02-09T08:00:17.534Z,32.54
2023-02-09T08:01:17.582Z,34.55
2023-02-09T08:02:17.566Z,33.18
2023-02-09T08:03:17.573Z,34.59
2023-02-09T08:04:17.577Z,33.87
2023-02-09T08:05:17.626Z,33.49
2023-02-09T08:06:19.244Z,34.41
2023-02-09T08:07:17.622Z,33.01
2023-02-09T08:08:17.592Z,32.77
2023-02-09T08:09:17.599Z,32.80
2023-02-09T08:10:17.597Z,32.52
2023-02-09T08:11:17.610Z,33.48
2023-02-09T08:12:17.669Z,32.72
2023-02-09T08:13:17.600Z,32.01
2023-02-09T08:14:17.607Z,32.47
2023-02-09T08:15:17.574Z,32.99
2023-02-09T08:16:17.685Z,33.28
2023-02-09T08:17:17.663Z,30.72
2023-02-09T08:18:17.614Z,31.64
2023-02-09T08:19:17.576Z,30.93
2023-02-09T08:20:17.584Z,32.70
2023-02-09T08:22:17.627Z,31.75
2023-02-09T08:23:17.647Z,32.58
2023-02-09T08:24:17.597Z,32.15
2023-02-09T08:25:17.641Z,30.93
2023-02-09T08:26:17.695Z,32.33
2023-02-09T08:27:17.602Z,31.19
2023-02-09T08:28:17.751Z,31.67
2023-02-09T08:29:17.610Z,32.38
2023-02-09T08:30:17.653Z,32.37
2023-02-09T08:31:17.715Z,32.08
2023-02-09T08:32:17.625Z,31.54
2023-02-09T08:33:17.659Z,33.16
2023-02-09T08:34:17.613Z,32.45
2023-02-09T08:35:17.673Z,31.38
2023-02-09T08:36:17.623Z,30.58
2023-02-09T08:37:17.611Z,32.06
2023-02-09T08:38:17.666Z,31.50
2023-02-09T08:39:17.654Z,30.90
2023-02-09T08:40:17.664Z,33.24
2023-02-09T08:41:17.637Z,30.27
2023-02-09T08:42:17.635Z,32.45
2023-02-09T08:43:17.672Z,32.55
2023-02-09T08:44:17.682Z,33.34
2023-02-09T08:45:17.672Z,33.45
2023-02-09T08:46:17.802Z,33.33
2023-02-09T08:47:17.645Z,32.48
2023-02-09T08:48:17.726Z,31.86
2023-02-09T08:49:17.693Z,31.00
2023-02-09T08:50:17.656Z,31.32
2023-02-09T08:51:17.691Z,33.18
2023-02-09T08:52:17.706Z,32.22
2023-02-09T08:53:17.692Z,31.85
2023-02-09T08:54:17.710Z,33.58
2023-02-09T08:55:17.719Z,33.50
2023-02-09T08:56:17.751Z,33.56
2023-02-09T08:57:17.714Z,32.54
2023-02-09T08:58:17.721Z,32.12
2023-02-09T08:59:19.991Z,32.58
2023-02-09T09:01:17.852Z,32.16
2023-02-09T09:02:17.726Z,31.92
2023-02-09T09:03:17.753Z,30.32
2023-02-09T09:04:17.773Z,32.03
2023-02-09T09:05:17.735Z,33.43
2023-02-09T09:06:17.732Z,33.53
2023-02-09T09:07:17.705Z,33.28
2023-02-09T09:08:17.693Z,32.00
2023-02-09T09:09:17.781Z,33.77
2023-02-09T09:10:17.781Z,34.50
2023-02-09T09:11:17.756Z,31.75
2023-02-09T09:12:17.763Z,31.55
2023-02-09T09:13:17.739Z,31.57
2023-02-09T09:14:17.786Z,30.99
2023-02-09T09:15:17.759Z,31.32
2023-02-09T09:16:17.765Z,31.93
2023-02-09T09:17:17.728Z,31.75
2023-02-09T09:18:17.753Z,32.18
2023-02-09T09:19:17.777Z,31.80
2023-02-09T09:20:17.738Z,33.62
2023-02-09T09:21:17.751Z,32.14
2023-02-09T09:22:17.792Z,31.58
2023-02-09T09:23:17.788Z,32.07
2023-02-09T09:24:17.799Z,32.48
2023-02-09T09:25:17.783Z,33.27
2023-02-09T09:26:17.798Z,33.36
2023-02-09T09:27:17.821Z,33.57
2023-02-09T09:28:17.826Z,33.86
2023-02-09T09:29:17.802Z,33.23
2023-02-09T09:30:17.769Z,32.91
2023-02-09T09:31:17.852Z,32.94
2023-02-09T09:32:17.952Z,32.63
2023-02-09T09:33:17.886Z,32.18
2023-02-09T09:34:17.775Z,33.44
2023-02-09T09:35:17.808Z,33.12
2023-02-09T09:36:17.803Z,31.80
2023-02-09T09:37:17.780Z,31.32
2023-02-09T09:38:17.786Z,30.96
2023-02-09T09:39:17.782Z,33.54
2023-02-09T09:40:17.864Z,30.72
2023-02-09T09:41:17.798Z,32.15
2023-02-09T09:42:17.789Z,32.23
2023-02-09T09:43:17.790Z,31.70
2023-02-09T09:44:17.840Z,32.31
2023-02-09T09:45:17.841Z,32.03
2023-02-09T09:46:18.027Z,31.18
2023-02-09T09:47:17.841Z,32.53
2023-02-09T09:48:17.808Z,32.57
2023-02-09T09:49:17.804Z,31.35
2023-02-09T09:50:17.840Z,31.32
2023-02-09T09:51:17.861Z,32.62
2023-02-09T09:52:17.829Z,31.93
2023-02-09T09:53:17.860Z,31.48
2023-02-09T09:54:17.823Z,31.44
2023-02-09T09:55:17.864Z,32.15
2023-02-09T09:56:17.880Z,30.53
2023-02-09T09:57:17.837Z,29.09
2023-02-09T09:58:17.841Z,30.19
2023-02-09T09:59:17.857Z,28.19
2023-02-09T10:00:17.874Z,28.23
2023-02-09T10:01:17.929Z,28.87
2023-02-09T10:03:17.897Z,26.24
2023-02-09T10:04:17.894Z,27.82
2023-02-09T10:05:17.925Z,26.29
2023-02-09T10:06:17.902Z,25.95
2023-02-09T10:07:19.608Z,27.62
2023-02-09T10:08:17.910Z,27.86
2023-02-09T10:09:17.901Z,27.62
2023-02-09T10:10:17.928Z,26.63
2023-02-09T10:11:17.871Z,26.28
2023-02-09T10:12:17.881Z,27.34
2023-02-09T10:13:17.946Z,27.31
2023-02-09T10:14:17.880Z,28.10
2023-02-09T10:15:17.881Z,27.06
2023-02-09T10:16:17.983Z,26.41
2023-02-09T10:17:17.877Z,28.27
2023-02-09T10:18:17.924Z,27.36
2023-02-09T10:19:17.939Z,27.62
2023-02-09T10:20:17.927Z,27.19
2023-02-09T10:21:17.956Z,27.24
2023-02-09T10:22:17.932Z,26.58
2023-02-09T10:23:17.903Z,27.26
2023-02-09T10:24:17.932Z,28.33
2023-02-09T10:25:17.950Z,26.08
2023-02-09T10:26:17.957Z,27.08
2023-02-09T10:27:17.912Z,26.29
2023-02-09T10:28:17.973Z,26.99
2023-02-09T10:29:17.898Z,25.12
2023-02-09T10:30:17.991Z,26.17
2023-02-09T10:31:18.066Z,27.10
2023-02-09T10:32:17.915Z,26.53
2023-02-09T10:33:17.914Z,26.21
2023-02-09T10:34:17.995Z,27.19
2023-02-09T10:35:17.928Z,27.23
2023-02-09T10:36:17.995Z,26.62
2023-02-09T10:37:17.967Z,27.28
2023-02-09T10:38:17.928Z,27.17
2023-02-09T10:39:17.977Z,26.21
2023-02-09T10:40:17.982Z,25.98
2023-02-09T10:41:17.939Z,26.12
2023-02-09T10:42:17.940Z,26.68
2023-02-09T10:43:17.954Z,26.85
2023-02-09T10:44:18.029Z,27.16
2023-02-09T10:45:17.960Z,27.87
2023-02-09T10:46:18.071Z,26.48
2023-02-09T10:47:17.964Z,27.34
2023-02-09T10:48:17.980Z,25.21
2023-02-09T10:49:18.022Z,26.04
2023-02-09T10:51:17.950Z,27.63
2023-02-09T10:52:18.008Z,26.95
2023-02-09T10:53:17.993Z,29.73
2023-02-09T10:54:18.130Z,27.58
2023-02-09T10:55:18.005Z,25.79
2023-02-09T10:56:18.006Z,29.35
2023-02-09T10:57:18.038Z,28.52
2023-02-09T10:58:18.009Z,27.07
2023-02-09T10:59:18.056Z,28.74
2023-02-09T11:00:17.987Z,27.46
2023-02-09T11:01:18.059Z,27.15
2023-02-09T11:02:18.001Z,25.07
2023-02-09T11:03:18.027Z,27.16
2023-02-09T11:04:18.129Z,26.77
2023-02-09T11:05:18.033Z,26.50
2023-02-09T11:06:18.037Z,25.24
2023-02-09T11:07:18.078Z,26.65
2023-02-09T11:08:18.049Z,27.40
2023-02-09T11:09:18.079Z,26.68
2023-02-09T11:10:18.045Z,26.98
2023-02-09T11:11:18.043Z,26.66
2023-02-09T11:12:18.047Z,27.30
2023-02-09T11:13:18.022Z,27.90
2023-02-09T11:14:18.084Z,26.66
2023-02-09T11:15:18.022Z,26.35
2023-02-09T11:16:18.145Z,27.94
2023-02-09T11:17:18.089Z,28.20
2023-02-09T11:18:18.066Z,27.00
2023-02-09T11:19:18.042Z,26.68
2023-02-09T11:20:18.142Z,26.70
2023-02-09T11:21:18.039Z,27.51
2023-02-09T11:22:18.078Z,27.36
2023-02-09T11:23:18.042Z,27.23
2023-02-09T11:24:18.089Z,26.81
2023-02-09T11:25:18.070Z,28.01
2023-02-09T11:26:18.058Z,28.02
2023-02-09T11:27:18.152Z,26.59
2023-02-09T11:28:18.109Z,28.26
2023-02-09T11:29:18.057Z,27.68
2023-02-09T11:30:18.242Z,27.74
2023-02-09T11:31:18.224Z,27.45
2023-02-09T11:32:18.102Z,26.40
2023-02-09T11:33:18.106Z,27.26
2023-02-09T11:34:18.124Z,27.70
2023-02-09T11:35:18.135Z,27.80
2023-02-09T11:36:18.084Z,28.14
2023-02-09T11:37:18.114Z,27.20
2023-02-09T11:38:18.125Z,29.08
2023-02-09T11:39:18.079Z,28.28
2023-02-09T11:40:18.145Z,28.27
2023-02-09T11:41:18.133Z,28.18
2023-02-09T11:42:18.086Z,27.87
2023-02-09T11:43:18.126Z,28.04
2023-02-09T11:44:18.144Z,25.72
2023-02-09T11:45:18.143Z,28.87
2023-02-09T11:46:18.142Z,27.26
2023-02-09T11:47:18.152Z,28.30
2023-02-09T11:48:18.178Z,27.95
2023-02-09T11:49:18.163Z,27.05
2023-02-09T11:50:18.144Z,27.52
2023-02-09T11:51:18.117Z,26.09
2023-02-09T11:52:18.160Z,28.36
2023-02-09T11:53:18.182Z,28.36
2023-02-09T11:54:18.190Z,27.73
2023-02-09T11:55:18.169Z,26.59
2023-02-09T11:56:18.169Z,27.13
2023-02-09T11:57:18.124Z,27.89
2023-02-09T11:58:18.191Z,26.23
2023-02-09T12:01:18.611Z,27.87
2023-02-09T12:02:18.136Z,27.51
2023-02-09T12:03:18.219Z,25.30
2023-02-09T12:04:18.133Z,26.51
2023-02-09T12:05:18.139Z,27.60
2023-02-09T12:06:18.246Z,27.42
2023-02-09T12:08:18.196Z,26.80
2023-02-09T12:09:18.161Z,29.39
2023-02-09T12:10:18.153Z,26.89
2023-02-09T12:11:18.246Z,27.93
2023-02-09T12:12:18.169Z,27.21
2023-02-09T12:13:18.214Z,28.10
2023-02-09T12:14:18.197Z,28.22
2023-02-09T12:15:18.196Z,30.11
2023-02-09T12:16:18.291Z,29.95
2023-02-09T12:17:18.211Z,28.28
2023-02-09T12:18:18.176Z,27.59
2023-02-09T12:19:18.238Z,26.71
2023-02-09T12:20:18.174Z,25.67
2023-02-09T12:21:18.229Z,25.62
2023-02-09T12:22:18.218Z,26.85
2023-02-09T12:23:18.234Z,27.19
2023-02-09T12:24:18.220Z,26.82
2023-02-09T12:25:18.221Z,26.35
2023-02-09T12:26:18.183Z,24.57
2023-02-09T12:27:18.269Z,25.71
2023-02-09T12:28:18.443Z,26.35
2023-02-09T12:30:18.239Z,25.81
2023-02-09T12:32:18.317Z,25.41
2023-02-09T12:33:18.249Z,25.96
2023-02-09T12:34:18.256Z,26.49
2023-02-09T12:35:18.258Z,25.49
2023-02-09T12:36:18.229Z,26.05
2023-02-09T12:37:18.251Z,24.91
2023-02-09T12:38:18.283Z,24.26
2023-02-09T12:39:23.772Z,25.63
2023-02-09T12:40:18.292Z,26.35
2023-02-09T12:41:18.398Z,25.30
2023-02-09T12:42:18.252Z,24.09
2023-02-09T12:43:18.264Z,24.08
2023-02-09T12:44:18.270Z,23.80
2023-02-09T12:45:18.284Z,23.60
2023-02-09T12:46:18.324Z,24.67
2023-02-09T12:47:18.351Z,25.31
2023-02-09T12:48:18.246Z,25.23
2023-02-09T12:49:18.245Z,24.84
2023-02-09T12:50:18.258Z,24.56
2023-02-09T12:51:18.295Z,26.95
2023-02-09T12:52:18.284Z,27.33
2023-02-09T12:53:18.293Z,25.90
2023-02-09T12:54:18.268Z,24.96
2023-02-09T12:55:18.298Z,23.46
2023-02-09T12:56:18.262Z,24.96
2023-02-09T12:57:18.297Z,26.38
2023-02-09T12:58:18.309Z,24.80
2023-02-09T12:59:18.527Z,25.66
2023-02-09T13:00:18.294Z,23.70
2023-02-09T13:01:18.355Z,24.89
2023-02-09T13:02:18.274Z,24.81
2023-02-09T13:03:18.349Z,24.55
2023-02-09T13:04:18.428Z,26.43
2023-02-09T13:05:18.345Z,24.12
2023-02-09T13:06:18.285Z,24.77
2023-02-09T13:07:18.292Z,24.51
2023-02-09T13:08:18.347Z,24.92
2023-02-09T13:09:18.301Z,23.98
2023-02-09T13:10:18.298Z,24.41
2023-02-09T13:11:18.410Z,23.85
2023-02-09T13:12:18.344Z,24.71
2023-02-09T13:13:18.351Z,24.67
2023-02-09T13:14:18.348Z,22.91
2023-02-09T13:15:18.343Z,27.70
2023-02-09T13:16:18.402Z,25.46
2023-02-09T13:17:18.456Z,24.67
2023-02-09T13:20:18.361Z,24.11
2023-02-09T13:21:18.379Z,23.66
2023-02-09T13:22:18.337Z,24.86
2023-02-09T13:23:18.411Z,23.83
2023-02-09T13:24:18.388Z,23.76
2023-02-09T13:25:18.345Z,23.97
2023-02-09T13:26:18.368Z,24.17
2023-02-09T13:28:18.689Z,24.15
2023-02-09T13:29:21.028Z,22.41
2023-02-09T13:30:18.354Z,23.71
2023-02-09T13:31:18.462Z,24.26
2023-02-09T13:32:18.386Z,23.46
2023-02-09T13:33:18.391Z,24.17
2023-02-09T13:34:18.470Z,24.79
2023-02-09T13:35:18.367Z,23.53
2023-02-09T13:36:24.770Z,22.88
2023-02-09T13:37:18.367Z,23.06
2023-02-09T13:38:18.368Z,23.38
2023-02-09T13:39:18.413Z,22.42
2023-02-09T13:40:18.487Z,21.55
2023-02-09T13:41:18.378Z,22.48
2023-02-09T13:42:18.414Z,20.64
2023-02-09T13:43:18.388Z,22.33
2023-02-09T13:44:18.424Z,22.41
2023-02-09T13:45:18.436Z,21.84
2023-02-09T13:46:18.553Z,20.45
2023-02-09T13:47:18.463Z,20.66
2023-02-09T13:48:18.401Z,22.02
2023-02-09T13:49:18.434Z,21.32
2023-02-09T13:50:18.440Z,21.47
2023-02-09T13:52:18.464Z,21.40
2023-02-09T13:54:18.398Z,20.03
2023-02-09T13:55:18.478Z,19.99
2023-02-09T13:56:18.438Z,22.05
2023-02-09T13:57:18.477Z,23.39
2023-02-09T13:58:18.575Z,21.17
2023-02-09T13:59:18.462Z,21.46
2023-02-09T14:00:18.431Z,20.89
2023-02-09T14:01:18.538Z,21.86
2023-02-09T14:02:18.506Z,22.14
2023-02-09T14:03:18.473Z,21.28
2023-02-09T14:04:18.493Z,22.73
2023-02-09T14:06:18.443Z,21.80
2023-02-09T14:07:18.508Z,22.31
2023-02-09T14:08:18.497Z,21.76
2023-02-09T14:09:18.459Z,21.37
2023-02-09T14:10:18.507Z,22.25
2023-02-09T14:11:18.466Z,20.91
2023-02-09T14:12:18.530Z,21.52
2023-02-09T14:13:18.482Z,22.31
2023-02-09T14:14:18.454Z,21.94
2023-02-09T14:15:18.477Z,20.52
2023-02-09T14:16:18.598Z,23.15
2023-02-09T14:17:25.164Z,21.07
2023-02-09T14:18:18.477Z,22.56
2023-02-09T14:19:18.507Z,21.22
2023-02-09T14:20:18.464Z,21.49
2023-02-09T14:21:18.472Z,20.31
2023-02-09T14:22:18.509Z,21.11
2023-02-09T14:24:18.513Z,20.71
2023-02-09T14:25:18.522Z,20.97
2023-02-09T14:26:18.520Z,19.90
2023-02-09T14:27:18.515Z,20.45
2023-02-09T14:28:18.554Z,20.11
2023-02-09T14:29:18.562Z,19.28
2023-02-09T14:30:18.501Z,18.58
2023-02-09T14:31:18.547Z,20.10
2023-02-09T14:32:27.452Z,18.82
2023-02-09T14:33:18.506Z,20.65
2023-02-09T14:34:18.536Z,20.33
2023-02-09T14:36:18.507Z,20.23
2023-02-09T14:38:18.533Z,23.39
2023-02-09T14:39:18.510Z,21.09
2023-02-09T14:40:18.582Z,20.25
2023-02-09T14:41:18.530Z,19.46
2023-02-09T14:42:18.514Z,19.55